TFS1043 KBOS-KMDW
Flight info
| Callsign | TFS1043 |
|---|---|
| Flight time | 2h 16m |
| Altitude | 34000 |
| Route | HYLND7 HYLND CAM Q822 GONZZ Q29 JHW DJB ASHEN PANGG7 |
| Aircraft | A321/M-SDE3FGHIRWY/LB1 |
Departure
| Time | 2026-05-03 22:17 |
|---|---|
| Airport | Boston Logan International Airport (KBOS) |
Arrival
| Time | 2026-05-04 00:33 |
|---|---|
| Airport | Chicago Midway International Airport (KMDW) |
| Time | Latitude | Longitude | Altitude | Speed | Heading |
|---|---|---|---|---|---|
| 2026-05-03 22:03 | 42.36562 | -71.01601 | 7 ft | 0 kts | 19° |
| 2026-05-03 22:05 | 42.36554 | -71.01605 | 25 ft | 4 kts | 19° |
| 2026-05-03 22:05 | 42.36528 | -71.01618 | 28 ft | 4 kts | 19° |
| 2026-05-03 22:05 | 42.36508 | -71.01627 | 27 ft | 2 kts | 19° |
| 2026-05-03 22:06 | 42.36484 | -71.01640 | 29 ft | 4 kts | 37° |
| 2026-05-03 22:06 | 42.36478 | -71.01647 | 27 ft | 0 kts | 43° |
| 2026-05-03 22:11 | 42.36474 | -71.01634 | 28 ft | 4 kts | 118° |
| 2026-05-03 22:12 | 42.36435 | -71.01561 | 27 ft | 13 kts | 126° |
| 2026-05-03 22:12 | 42.36392 | -71.01463 | 27 ft | 12 kts | 117° |
| 2026-05-03 22:12 | 42.36356 | -71.01359 | 28 ft | 14 kts | 116° |
| 2026-05-03 22:12 | 42.36292 | -71.01214 | 27 ft | 23 kts | 122° |
| 2026-05-03 22:13 | 42.36219 | -71.01021 | 25 ft | 22 kts | 114° |
| 2026-05-03 22:13 | 42.36157 | -71.00837 | 29 ft | 21 kts | 114° |
| 2026-05-03 22:13 | 42.36108 | -71.00668 | 27 ft | 18 kts | 109° |
| 2026-05-03 22:13 | 42.36061 | -71.00487 | 26 ft | 21 kts | 108° |
| 2026-05-03 22:14 | 42.36014 | -71.00302 | 29 ft | 22 kts | 108° |
| 2026-05-03 22:14 | 42.35967 | -71.00109 | 27 ft | 21 kts | 109° |
| 2026-05-03 22:14 | 42.35960 | -70.99926 | 25 ft | 20 kts | 75° |
| 2026-05-03 22:14 | 42.35994 | -70.99739 | 27 ft | 20 kts | 76° |
| 2026-05-03 22:15 | 42.36025 | -70.99563 | 26 ft | 19 kts | 77° |
| 2026-05-03 22:15 | 42.36052 | -70.99407 | 27 ft | 17 kts | 76° |
| 2026-05-03 22:15 | 42.36080 | -70.99249 | 29 ft | 18 kts | 76° |
| 2026-05-03 22:15 | 42.36111 | -70.99076 | 27 ft | 19 kts | 76° |
| 2026-05-03 22:16 | 42.36139 | -70.98903 | 25 ft | 15 kts | 91° |
| 2026-05-03 22:16 | 42.36065 | -70.98831 | 25 ft | 14 kts | 172° |
| 2026-05-03 22:16 | 42.36005 | -70.98881 | 25 ft | 0 kts | 254° |
| 2026-05-03 22:16 | 42.36005 | -70.98882 | 25 ft | 0 kts | 254° |
| 2026-05-03 22:17 | 42.35997 | -70.98925 | 27 ft | 28 kts | 255° |
| 2026-05-03 22:17 | 42.35891 | -70.99521 | 27 ft | 100 kts | 256° |
| 2026-05-03 22:17 | 42.35687 | -71.00688 | 67 ft | 149 kts | 263° |
| 2026-05-03 22:17 | 42.35443 | -71.02086 | 694 ft | 153 kts | 262° |
| 2026-05-03 22:18 | 42.34975 | -71.03394 | 1475 ft | 160 kts | 233° |
| 2026-05-03 22:18 | 42.34135 | -71.04415 | 2029 ft | 166 kts | 230° |
| 2026-05-03 22:18 | 42.33243 | -71.05561 | 2158 ft | 187 kts | 231° |
| 2026-05-03 22:18 | 42.32259 | -71.06842 | 2314 ft | 207 kts | 231° |
| 2026-05-03 22:19 | 42.31172 | -71.08250 | 2445 ft | 228 kts | 230° |
| 2026-05-03 22:19 | 42.29962 | -71.09806 | 2717 ft | 248 kts | 229° |
| 2026-05-03 22:19 | 42.28696 | -71.11439 | 3356 ft | 253 kts | 234° |
| 2026-05-03 22:19 | 42.27908 | -71.13464 | 4045 ft | 243 kts | 264° |
| 2026-05-03 22:20 | 42.27974 | -71.15694 | 4771 ft | 239 kts | 284° |
| 2026-05-03 22:20 | 42.28323 | -71.17904 | 5483 ft | 243 kts | 284° |
| 2026-05-03 22:20 | 42.28743 | -71.20127 | 6164 ft | 246 kts | 295° |
| 2026-05-03 22:20 | 42.29781 | -71.21950 | 6809 ft | 250 kts | 322° |
| 2026-05-03 22:21 | 42.31370 | -71.22941 | 7498 ft | 255 kts | 339° |
| 2026-05-03 22:21 | 42.33070 | -71.23677 | 8213 ft | 257 kts | 339° |
| 2026-05-03 22:21 | 42.34783 | -71.24413 | 8899 ft | 260 kts | 339° |
| 2026-05-03 22:21 | 42.36512 | -71.25159 | 9586 ft | 262 kts | 339° |
| 2026-05-03 22:22 | 42.38285 | -71.25781 | 10210 ft | 266 kts | 349° |
| 2026-05-03 22:22 | 42.40177 | -71.25913 | 10584 ft | 282 kts | 354° |
| 2026-05-03 22:22 | 42.42206 | -71.26002 | 10723 ft | 302 kts | 354° |
| 2026-05-03 22:22 | 42.44374 | -71.26099 | 10877 ft | 320 kts | 354° |
| 2026-05-03 22:23 | 42.46636 | -71.26197 | 11341 ft | 327 kts | 354° |
| 2026-05-03 22:23 | 42.48924 | -71.26288 | 11954 ft | 331 kts | 354° |
| 2026-05-03 22:23 | 42.51234 | -71.26383 | 12569 ft | 333 kts | 354° |
| 2026-05-03 22:23 | 42.53563 | -71.26477 | 13188 ft | 336 kts | 354° |
| 2026-05-03 22:24 | 42.55913 | -71.26576 | 13773 ft | 339 kts | 354° |
| 2026-05-03 22:24 | 42.58278 | -71.26677 | 14321 ft | 342 kts | 354° |
| 2026-05-03 22:24 | 42.60663 | -71.26777 | 14868 ft | 344 kts | 354° |
| 2026-05-03 22:24 | 42.63064 | -71.26877 | 15396 ft | 347 kts | 354° |
| 2026-05-03 22:25 | 42.65482 | -71.26980 | 15931 ft | 349 kts | 354° |
| 2026-05-03 22:25 | 42.67920 | -71.27088 | 16474 ft | 352 kts | 354° |
| 2026-05-03 22:25 | 42.70379 | -71.27200 | 16983 ft | 354 kts | 354° |
| 2026-05-03 22:25 | 42.72823 | -71.27487 | 17471 ft | 353 kts | 343° |
| 2026-05-03 22:26 | 42.75102 | -71.28667 | 17948 ft | 350 kts | 327° |
| 2026-05-03 22:26 | 42.77010 | -71.30708 | 18400 ft | 350 kts | 311° |
| 2026-05-03 22:26 | 42.78388 | -71.33435 | 18818 ft | 353 kts | 296° |
| 2026-05-03 22:26 | 42.79118 | -71.36586 | 19220 ft | 358 kts | 282° |
| 2026-05-03 22:27 | 42.79497 | -71.39944 | 19638 ft | 360 kts | 281° |
| 2026-05-03 22:27 | 42.79868 | -71.43327 | 20065 ft | 362 kts | 281° |
| 2026-05-03 22:27 | 42.80238 | -71.46734 | 20486 ft | 365 kts | 281° |
| 2026-05-03 22:27 | 42.80611 | -71.50157 | 20911 ft | 367 kts | 281° |
| 2026-05-03 22:28 | 42.80989 | -71.53601 | 21322 ft | 369 kts | 281° |
| 2026-05-03 22:28 | 42.81371 | -71.57070 | 21722 ft | 371 kts | 281° |
| 2026-05-03 22:28 | 42.81755 | -71.60551 | 22153 ft | 373 kts | 281° |
| 2026-05-03 22:28 | 42.82141 | -71.64055 | 22557 ft | 375 kts | 281° |
| 2026-05-03 22:29 | 42.82527 | -71.67575 | 22958 ft | 377 kts | 281° |
| 2026-05-03 22:29 | 42.82916 | -71.71114 | 23357 ft | 379 kts | 281° |
| 2026-05-03 22:29 | 42.83303 | -71.74675 | 23689 ft | 381 kts | 281° |
| 2026-05-03 22:29 | 42.83689 | -71.78252 | 24009 ft | 383 kts | 280° |
| 2026-05-03 22:30 | 42.84075 | -71.81859 | 24314 ft | 385 kts | 280° |
| 2026-05-03 22:30 | 42.84461 | -71.85479 | 24612 ft | 387 kts | 280° |
| 2026-05-03 22:30 | 42.84851 | -71.89125 | 24898 ft | 390 kts | 280° |
| 2026-05-03 22:30 | 42.85242 | -71.92778 | 25193 ft | 391 kts | 280° |
| 2026-05-03 22:31 | 42.85636 | -71.96462 | 25517 ft | 393 kts | 280° |
| 2026-05-03 22:31 | 42.86028 | -72.00152 | 25808 ft | 395 kts | 280° |
| 2026-05-03 22:31 | 42.86421 | -72.03865 | 26095 ft | 397 kts | 280° |
| 2026-05-03 22:31 | 42.86814 | -72.07592 | 26380 ft | 399 kts | 280° |
| 2026-05-03 22:32 | 42.87211 | -72.11351 | 26658 ft | 401 kts | 279° |
| 2026-05-03 22:32 | 42.87607 | -72.15124 | 26956 ft | 403 kts | 279° |
| 2026-05-03 22:32 | 42.88002 | -72.18917 | 27253 ft | 405 kts | 279° |
| 2026-05-03 22:32 | 42.88396 | -72.22722 | 27518 ft | 407 kts | 279° |
| 2026-05-03 22:33 | 42.88790 | -72.26551 | 27773 ft | 408 kts | 279° |
| 2026-05-03 22:33 | 42.89184 | -72.30383 | 28028 ft | 410 kts | 279° |
| 2026-05-03 22:33 | 42.89582 | -72.34249 | 28276 ft | 412 kts | 279° |
| 2026-05-03 22:33 | 42.89979 | -72.38120 | 28521 ft | 413 kts | 279° |
| 2026-05-03 22:34 | 42.90380 | -72.42008 | 28759 ft | 415 kts | 279° |
| 2026-05-03 22:34 | 42.90782 | -72.45920 | 29004 ft | 417 kts | 279° |
| 2026-05-03 22:34 | 42.91182 | -72.49841 | 29244 ft | 419 kts | 279° |
| 2026-05-03 22:34 | 42.91579 | -72.53781 | 29493 ft | 421 kts | 279° |
| 2026-05-03 22:35 | 42.91969 | -72.57687 | 29792 ft | 420 kts | 279° |
| 2026-05-03 22:35 | 42.92369 | -72.61680 | 30101 ft | 419 kts | 279° |
| 2026-05-03 22:35 | 42.92758 | -72.65558 | 30442 ft | 417 kts | 279° |
| 2026-05-03 22:35 | 42.93154 | -72.69518 | 30726 ft | 416 kts | 278° |
| 2026-05-03 22:36 | 42.93541 | -72.73380 | 30962 ft | 417 kts | 278° |
| 2026-05-03 22:36 | 42.93935 | -72.77302 | 31181 ft | 417 kts | 278° |
| 2026-05-03 22:36 | 42.94326 | -72.81231 | 31406 ft | 418 kts | 278° |
| 2026-05-03 22:36 | 42.94711 | -72.85162 | 31640 ft | 418 kts | 278° |
| 2026-05-03 22:37 | 42.95092 | -72.89097 | 31850 ft | 419 kts | 278° |
| 2026-05-03 22:37 | 42.95475 | -72.93049 | 32063 ft | 420 kts | 278° |
| 2026-05-03 22:37 | 42.95857 | -72.96991 | 32291 ft | 420 kts | 278° |
| 2026-05-03 22:37 | 42.96239 | -73.00948 | 32530 ft | 420 kts | 278° |
| 2026-05-03 22:38 | 42.96621 | -73.04899 | 32753 ft | 420 kts | 278° |
| 2026-05-03 22:38 | 42.97004 | -73.08852 | 32988 ft | 420 kts | 278° |
| 2026-05-03 22:38 | 42.97386 | -73.12805 | 33200 ft | 420 kts | 277° |
| 2026-05-03 22:38 | 42.97765 | -73.16764 | 33439 ft | 420 kts | 277° |
| 2026-05-03 22:39 | 42.98141 | -73.20717 | 33653 ft | 420 kts | 277° |
| 2026-05-03 22:39 | 42.98516 | -73.24678 | 33830 ft | 421 kts | 277° |
| 2026-05-03 22:39 | 42.98889 | -73.28625 | 33867 ft | 417 kts | 277° |
| 2026-05-03 22:40 | 42.99489 | -73.36479 | 33874 ft | 416 kts | 272° |
| 2026-05-03 22:40 | 42.99677 | -73.44382 | 33876 ft | 416 kts | 272° |
| 2026-05-03 22:41 | 42.99871 | -73.52293 | 33881 ft | 416 kts | 272° |
| 2026-05-03 22:41 | 43.00066 | -73.60196 | 33886 ft | 417 kts | 272° |
| 2026-05-03 22:42 | 43.00253 | -73.68109 | 33894 ft | 417 kts | 272° |
| 2026-05-03 22:42 | 43.00431 | -73.76027 | 33896 ft | 417 kts | 272° |
| 2026-05-03 22:43 | 43.00600 | -73.83941 | 33900 ft | 417 kts | 272° |
| 2026-05-03 22:43 | 43.00761 | -73.91863 | 33899 ft | 417 kts | 272° |
| 2026-05-03 22:44 | 43.00927 | -73.99780 | 33902 ft | 417 kts | 272° |
| 2026-05-03 22:44 | 43.01085 | -74.07695 | 33915 ft | 416 kts | 272° |
| 2026-05-03 22:45 | 43.01237 | -74.15591 | 33919 ft | 415 kts | 272° |
| 2026-05-03 22:45 | 43.01378 | -74.23475 | 33917 ft | 415 kts | 272° |
| 2026-05-03 22:46 | 43.01597 | -74.31343 | 33915 ft | 414 kts | 274° |
| 2026-05-03 22:46 | 43.01988 | -74.39191 | 33921 ft | 414 kts | 275° |
| 2026-05-03 22:47 | 43.02392 | -74.47023 | 33922 ft | 413 kts | 274° |
| 2026-05-03 22:47 | 43.02753 | -74.54854 | 33923 ft | 413 kts | 274° |
| 2026-05-03 22:48 | 43.03079 | -74.62675 | 33921 ft | 412 kts | 274° |
| 2026-05-03 22:48 | 43.03402 | -74.70497 | 33920 ft | 412 kts | 274° |
| 2026-05-03 22:49 | 43.03729 | -74.78310 | 33921 ft | 412 kts | 274° |
| 2026-05-03 22:49 | 43.04056 | -74.86130 | 33919 ft | 412 kts | 274° |
| 2026-05-03 22:50 | 43.04320 | -74.92621 | 33918 ft | 412 kts | 274° |
| 2026-05-03 22:50 | 43.04624 | -75.00440 | 33916 ft | 412 kts | 274° |
| 2026-05-03 22:51 | 43.04933 | -75.08257 | 33655 ft | 408 kts | 269° |
| 2026-05-03 22:51 | 43.05086 | -75.12032 | 33787 ft | 387 kts | 268° |
| 2026-05-03 22:51 | 43.05233 | -75.15614 | 33907 ft | 370 kts | 268° |
| 2026-05-03 22:52 | 43.05492 | -75.22545 | 33906 ft | 363 kts | 268° |
| 2026-05-03 22:52 | 43.05742 | -75.29417 | 33912 ft | 361 kts | 268° |
| 2026-05-03 22:53 | 43.05960 | -75.36274 | 33907 ft | 360 kts | 267° |
| 2026-05-03 22:53 | 43.06138 | -75.43104 | 33940 ft | 359 kts | 267° |
| 2026-05-03 22:54 | 43.06315 | -75.49946 | 33920 ft | 361 kts | 267° |
| 2026-05-03 22:54 | 43.06503 | -75.56809 | 33913 ft | 362 kts | 267° |
| 2026-05-03 22:55 | 43.06687 | -75.63686 | 33907 ft | 362 kts | 267° |
| 2026-05-03 22:55 | 43.06866 | -75.70566 | 33911 ft | 362 kts | 267° |
| 2026-05-03 22:56 | 43.07040 | -75.77439 | 33912 ft | 362 kts | 266° |
| 2026-05-03 22:56 | 43.07209 | -75.84319 | 33922 ft | 362 kts | 267° |
| 2026-05-03 22:57 | 43.07379 | -75.91217 | 33914 ft | 363 kts | 267° |
| 2026-05-03 22:57 | 43.07539 | -75.98078 | 33912 ft | 363 kts | 266° |
| 2026-05-03 22:58 | 43.07690 | -76.04984 | 33908 ft | 363 kts | 266° |
| 2026-05-03 22:58 | 43.07841 | -76.11900 | 33914 ft | 363 kts | 266° |
| 2026-05-03 22:59 | 43.07992 | -76.18809 | 33916 ft | 364 kts | 266° |
| 2026-05-03 22:59 | 43.08138 | -76.25728 | 33911 ft | 365 kts | 266° |
| 2026-05-03 23:00 | 43.08282 | -76.32673 | 33906 ft | 365 kts | 266° |
| 2026-05-03 23:00 | 43.08416 | -76.39624 | 33914 ft | 366 kts | 266° |
| 2026-05-03 23:01 | 43.08548 | -76.46577 | 33927 ft | 366 kts | 266° |
| 2026-05-03 23:01 | 43.08681 | -76.53530 | 33933 ft | 366 kts | 266° |
| 2026-05-03 23:02 | 43.08806 | -76.60508 | 33922 ft | 368 kts | 266° |
| 2026-05-03 23:02 | 43.08672 | -76.67474 | 33911 ft | 364 kts | 256° |
| 2026-05-03 23:03 | 43.06816 | -76.73850 | 33910 ft | 363 kts | 242° |
| 2026-05-03 23:03 | 43.04313 | -76.79856 | 33896 ft | 363 kts | 242° |
| 2026-05-03 23:04 | 43.01832 | -76.85854 | 33922 ft | 362 kts | 242° |
| 2026-05-03 23:04 | 42.99342 | -76.91848 | 33922 ft | 363 kts | 242° |
| 2026-05-03 23:05 | 42.96839 | -76.97859 | 33911 ft | 365 kts | 242° |
| 2026-05-03 23:05 | 42.94322 | -77.03894 | 33900 ft | 366 kts | 242° |
| 2026-05-03 23:06 | 42.91796 | -77.09932 | 33897 ft | 367 kts | 242° |
| 2026-05-03 23:06 | 42.89266 | -77.15991 | 33883 ft | 367 kts | 243° |
| 2026-05-03 23:07 | 42.86994 | -77.22214 | 33922 ft | 366 kts | 245° |
| 2026-05-03 23:07 | 42.84881 | -77.28535 | 33930 ft | 367 kts | 246° |
| 2026-05-03 23:08 | 42.82741 | -77.34855 | 33923 ft | 368 kts | 245° |
| 2026-05-03 23:08 | 42.80550 | -77.41151 | 33920 ft | 368 kts | 245° |
| 2026-05-03 23:09 | 42.78352 | -77.47409 | 33928 ft | 369 kts | 245° |
| 2026-05-03 23:09 | 42.76136 | -77.53719 | 33923 ft | 370 kts | 245° |
| 2026-05-03 23:10 | 42.73919 | -77.60023 | 33938 ft | 369 kts | 245° |
| 2026-05-03 23:10 | 42.71699 | -77.66319 | 33932 ft | 369 kts | 245° |
| 2026-05-03 23:11 | 42.69469 | -77.72617 | 33931 ft | 369 kts | 245° |
| 2026-05-03 23:11 | 42.67235 | -77.78911 | 33927 ft | 370 kts | 245° |
| 2026-05-03 23:12 | 42.65000 | -77.85212 | 33930 ft | 370 kts | 245° |
| 2026-05-03 23:12 | 42.62762 | -77.91510 | 33929 ft | 371 kts | 245° |
| 2026-05-03 23:13 | 42.60512 | -77.97813 | 33931 ft | 372 kts | 245° |
| 2026-05-03 23:13 | 42.58249 | -78.04130 | 33905 ft | 372 kts | 245° |
| 2026-05-03 23:14 | 42.55982 | -78.10451 | 33926 ft | 372 kts | 245° |
| 2026-05-03 23:14 | 42.53719 | -78.16768 | 33927 ft | 372 kts | 245° |
| 2026-05-03 23:15 | 42.51449 | -78.23083 | 33932 ft | 373 kts | 245° |
| 2026-05-03 23:15 | 42.49174 | -78.29389 | 33934 ft | 373 kts | 245° |
| 2026-05-03 23:16 | 42.46891 | -78.35703 | 33932 ft | 373 kts | 245° |
| 2026-05-03 23:16 | 42.44602 | -78.42013 | 33926 ft | 374 kts | 245° |
| 2026-05-03 23:17 | 42.42314 | -78.48330 | 33909 ft | 373 kts | 245° |
| 2026-05-03 23:17 | 42.40043 | -78.54586 | 33924 ft | 372 kts | 245° |
| 2026-05-03 23:18 | 42.37749 | -78.60863 | 33936 ft | 372 kts | 245° |
| 2026-05-03 23:18 | 42.35453 | -78.67136 | 33938 ft | 372 kts | 245° |
| 2026-05-03 23:19 | 42.33142 | -78.73473 | 33941 ft | 383 kts | 248° |
| 2026-05-03 23:19 | 42.30750 | -78.80007 | 33946 ft | 393 kts | 247° |
| 2026-05-03 23:20 | 42.28279 | -78.86714 | 33946 ft | 404 kts | 247° |
| 2026-05-03 23:20 | 42.25741 | -78.93580 | 33939 ft | 411 kts | 247° |
| 2026-05-03 23:21 | 42.23182 | -79.00495 | 33940 ft | 412 kts | 247° |
| 2026-05-03 23:21 | 42.20612 | -79.07410 | 33940 ft | 412 kts | 247° |
| 2026-05-03 23:22 | 42.17347 | -79.18027 | 33952 ft | 408 kts | 254° |
| 2026-05-03 23:22 | 42.15494 | -79.25260 | 33951 ft | 408 kts | 254° |
| 2026-05-03 23:23 | 42.13626 | -79.32474 | 33952 ft | 408 kts | 254° |
| 2026-05-03 23:23 | 42.11753 | -79.39694 | 33935 ft | 408 kts | 254° |
| 2026-05-03 23:24 | 42.09878 | -79.46900 | 33941 ft | 408 kts | 254° |
| 2026-05-03 23:24 | 42.08003 | -79.54101 | 33956 ft | 408 kts | 254° |
| 2026-05-03 23:25 | 42.06122 | -79.61295 | 33957 ft | 407 kts | 254° |
| 2026-05-03 23:25 | 42.04237 | -79.68481 | 33954 ft | 407 kts | 254° |
| 2026-05-03 23:26 | 42.02343 | -79.75670 | 33950 ft | 407 kts | 254° |
| 2026-05-03 23:26 | 42.00444 | -79.82848 | 33950 ft | 408 kts | 254° |
| 2026-05-03 23:27 | 41.98551 | -79.90028 | 33944 ft | 408 kts | 254° |
| 2026-05-03 23:27 | 41.96662 | -79.97169 | 33921 ft | 408 kts | 254° |
| 2026-05-03 23:28 | 41.94750 | -80.04343 | 33949 ft | 408 kts | 254° |
| 2026-05-03 23:28 | 41.92836 | -80.11503 | 33958 ft | 407 kts | 254° |
| 2026-05-03 23:29 | 41.90926 | -80.18656 | 33951 ft | 407 kts | 254° |
| 2026-05-03 23:29 | 41.89010 | -80.25801 | 33954 ft | 407 kts | 254° |
| 2026-05-03 23:30 | 41.87078 | -80.32945 | 33954 ft | 407 kts | 254° |
| 2026-05-03 23:30 | 41.85149 | -80.40080 | 33967 ft | 407 kts | 254° |
| 2026-05-03 23:31 | 41.83214 | -80.47215 | 33963 ft | 407 kts | 254° |
| 2026-05-03 23:31 | 41.81279 | -80.54352 | 33961 ft | 407 kts | 254° |
| 2026-05-03 23:32 | 41.79343 | -80.61478 | 33949 ft | 407 kts | 254° |
| 2026-05-03 23:32 | 41.77397 | -80.68589 | 33961 ft | 406 kts | 254° |
| 2026-05-03 23:33 | 41.75448 | -80.75691 | 33968 ft | 406 kts | 254° |
| 2026-05-03 23:33 | 41.73506 | -80.82782 | 33964 ft | 405 kts | 254° |
| 2026-05-03 23:34 | 41.71577 | -80.89819 | 33959 ft | 405 kts | 254° |
| 2026-05-03 23:34 | 41.69616 | -80.96889 | 33953 ft | 405 kts | 253° |
| 2026-05-03 23:35 | 41.67650 | -81.03957 | 33951 ft | 405 kts | 253° |
| 2026-05-03 23:35 | 41.65689 | -81.11018 | 33951 ft | 405 kts | 253° |
| 2026-05-03 23:36 | 41.63728 | -81.18075 | 33942 ft | 405 kts | 253° |
| 2026-05-03 23:36 | 41.61761 | -81.25117 | 33951 ft | 404 kts | 253° |
| 2026-05-03 23:37 | 41.59788 | -81.32153 | 33943 ft | 404 kts | 253° |
| 2026-05-03 23:37 | 41.58133 | -81.38041 | 33962 ft | 404 kts | 253° |
| 2026-05-03 23:38 | 41.56157 | -81.45060 | 33962 ft | 404 kts | 253° |
| 2026-05-03 23:38 | 41.54174 | -81.52078 | 33963 ft | 404 kts | 253° |
| 2026-05-03 23:39 | 41.52197 | -81.59052 | 33944 ft | 404 kts | 253° |
| 2026-05-03 23:39 | 41.50208 | -81.66065 | 33942 ft | 404 kts | 253° |
| 2026-05-03 23:40 | 41.48211 | -81.73088 | 33942 ft | 405 kts | 253° |
| 2026-05-03 23:40 | 41.46202 | -81.80109 | 33941 ft | 405 kts | 253° |
| 2026-05-03 23:41 | 41.44197 | -81.87108 | 33959 ft | 404 kts | 253° |
| 2026-05-03 23:41 | 41.42189 | -81.94089 | 33964 ft | 403 kts | 253° |
| 2026-05-03 23:42 | 41.40177 | -82.01063 | 33961 ft | 403 kts | 253° |
| 2026-05-03 23:42 | 41.38165 | -82.08027 | 33986 ft | 403 kts | 253° |
| 2026-05-03 23:43 | 41.36366 | -82.15051 | 33981 ft | 398 kts | 262° |
| 2026-05-03 23:43 | 41.36164 | -82.22316 | 33982 ft | 392 kts | 276° |
| 2026-05-03 23:44 | 41.36626 | -82.29557 | 33974 ft | 392 kts | 276° |
| 2026-05-03 23:44 | 41.37050 | -82.36796 | 33969 ft | 392 kts | 276° |
| 2026-05-03 23:45 | 41.37462 | -82.44044 | 33956 ft | 393 kts | 276° |
| 2026-05-03 23:45 | 41.37873 | -82.51307 | 33951 ft | 394 kts | 276° |
| 2026-05-03 23:46 | 41.38277 | -82.58576 | 33947 ft | 394 kts | 276° |
| 2026-05-03 23:46 | 41.38683 | -82.65856 | 33951 ft | 394 kts | 276° |
| 2026-05-03 23:47 | 41.39093 | -82.73097 | 33956 ft | 395 kts | 276° |
| 2026-05-03 23:47 | 41.39498 | -82.80388 | 33947 ft | 395 kts | 276° |
| 2026-05-03 23:48 | 41.39895 | -82.87690 | 33944 ft | 396 kts | 276° |
| 2026-05-03 23:48 | 41.40290 | -82.95012 | 33947 ft | 396 kts | 276° |
| 2026-05-03 23:49 | 41.40670 | -83.02340 | 33959 ft | 397 kts | 276° |
| 2026-05-03 23:49 | 41.41049 | -83.09677 | 33954 ft | 397 kts | 276° |
| 2026-05-03 23:50 | 41.41423 | -83.17016 | 33948 ft | 397 kts | 276° |
| 2026-05-03 23:50 | 41.41795 | -83.24350 | 33952 ft | 397 kts | 276° |
| 2026-05-03 23:51 | 41.42170 | -83.31685 | 33950 ft | 397 kts | 276° |
| 2026-05-03 23:51 | 41.42539 | -83.39020 | 33952 ft | 397 kts | 276° |
| 2026-05-03 23:52 | 41.42900 | -83.46370 | 33946 ft | 397 kts | 276° |
| 2026-05-03 23:52 | 41.43248 | -83.53669 | 33935 ft | 397 kts | 276° |
| 2026-05-03 23:53 | 41.43602 | -83.61006 | 33937 ft | 397 kts | 276° |
| 2026-05-03 23:53 | 41.43948 | -83.68398 | 33934 ft | 396 kts | 276° |
| 2026-05-03 23:54 | 41.44280 | -83.75676 | 33937 ft | 396 kts | 276° |
| 2026-05-03 23:54 | 41.44621 | -83.83015 | 33938 ft | 397 kts | 276° |
| 2026-05-03 23:55 | 41.44955 | -83.90350 | 33936 ft | 397 kts | 276° |
| 2026-05-03 23:55 | 41.45285 | -83.97734 | 33943 ft | 397 kts | 276° |
| 2026-05-03 23:56 | 41.45607 | -84.05030 | 33948 ft | 396 kts | 276° |
| 2026-05-03 23:56 | 41.45926 | -84.12364 | 33961 ft | 396 kts | 276° |
| 2026-05-03 23:57 | 41.46243 | -84.19694 | 33960 ft | 396 kts | 276° |
| 2026-05-03 23:57 | 41.46554 | -84.27025 | 33970 ft | 396 kts | 276° |
| 2026-05-03 23:58 | 41.46861 | -84.34356 | 33961 ft | 396 kts | 276° |
| 2026-05-03 23:58 | 41.47154 | -84.41688 | 33969 ft | 396 kts | 276° |
| 2026-05-03 23:59 | 41.47443 | -84.49012 | 33969 ft | 396 kts | 276° |
| 2026-05-03 23:59 | 41.47732 | -84.56346 | 33970 ft | 396 kts | 276° |
| 2026-05-04 00:00 | 41.48011 | -84.63673 | 33984 ft | 396 kts | 276° |
| 2026-05-04 00:00 | 41.48296 | -84.71007 | 33979 ft | 396 kts | 276° |
| 2026-05-04 00:01 | 41.48591 | -84.78339 | 33940 ft | 397 kts | 276° |
| 2026-05-04 00:01 | 41.48739 | -84.82018 | 33837 ft | 397 kts | 276° |
| 2026-05-04 00:01 | 41.48889 | -84.85729 | 32669 ft | 407 kts | 276° |
| 2026-05-04 00:02 | 41.49044 | -84.89538 | 31737 ft | 413 kts | 275° |
| 2026-05-04 00:02 | 41.49192 | -84.93354 | 31159 ft | 410 kts | 275° |
| 2026-05-04 00:02 | 41.49332 | -84.97130 | 30671 ft | 406 kts | 275° |
| 2026-05-04 00:02 | 41.49469 | -85.00865 | 30182 ft | 401 kts | 275° |
| 2026-05-04 00:03 | 41.49603 | -85.04561 | 29649 ft | 397 kts | 275° |
| 2026-05-04 00:03 | 41.49739 | -85.08211 | 29176 ft | 391 kts | 275° |
| 2026-05-04 00:03 | 41.49874 | -85.11754 | 28713 ft | 385 kts | 276° |
| 2026-05-04 00:03 | 41.50008 | -85.15295 | 28256 ft | 379 kts | 275° |
| 2026-05-04 00:04 | 41.50135 | -85.18782 | 27808 ft | 374 kts | 275° |
| 2026-05-04 00:04 | 41.50256 | -85.22220 | 27371 ft | 369 kts | 275° |
| 2026-05-04 00:04 | 41.50376 | -85.25611 | 26941 ft | 364 kts | 275° |
| 2026-05-04 00:04 | 41.50496 | -85.28963 | 26520 ft | 359 kts | 275° |
| 2026-05-04 00:05 | 41.50613 | -85.32263 | 26120 ft | 354 kts | 275° |
| 2026-05-04 00:05 | 41.50726 | -85.35519 | 25715 ft | 349 kts | 275° |
| 2026-05-04 00:05 | 41.50836 | -85.38732 | 25328 ft | 344 kts | 275° |
| 2026-05-04 00:05 | 41.50944 | -85.41897 | 24943 ft | 340 kts | 275° |
| 2026-05-04 00:06 | 41.51051 | -85.45024 | 24549 ft | 335 kts | 275° |
| 2026-05-04 00:06 | 41.51155 | -85.48117 | 24180 ft | 331 kts | 275° |
| 2026-05-04 00:06 | 41.51259 | -85.51168 | 23807 ft | 328 kts | 275° |
| 2026-05-04 00:06 | 41.51364 | -85.54246 | 23328 ft | 340 kts | 275° |
| 2026-05-04 00:07 | 41.51469 | -85.57433 | 22826 ft | 346 kts | 275° |
| 2026-05-04 00:07 | 41.51572 | -85.60647 | 22356 ft | 346 kts | 275° |
| 2026-05-04 00:07 | 41.51666 | -85.63845 | 21891 ft | 344 kts | 274° |
| 2026-05-04 00:07 | 41.51739 | -85.67030 | 21424 ft | 342 kts | 274° |
| 2026-05-04 00:08 | 41.51800 | -85.70196 | 20975 ft | 340 kts | 274° |
| 2026-05-04 00:08 | 41.51860 | -85.73343 | 20522 ft | 338 kts | 274° |
| 2026-05-04 00:08 | 41.51919 | -85.76476 | 20068 ft | 336 kts | 274° |
| 2026-05-04 00:08 | 41.51981 | -85.79585 | 19620 ft | 334 kts | 274° |
| 2026-05-04 00:09 | 41.52042 | -85.82666 | 19178 ft | 332 kts | 274° |
| 2026-05-04 00:09 | 41.52103 | -85.85750 | 18731 ft | 331 kts | 274° |
| 2026-05-04 00:09 | 41.52162 | -85.88808 | 18294 ft | 329 kts | 274° |
| 2026-05-04 00:09 | 41.52216 | -85.91853 | 17813 ft | 328 kts | 274° |
| 2026-05-04 00:10 | 41.52269 | -85.94876 | 17495 ft | 324 kts | 274° |
| 2026-05-04 00:10 | 41.52321 | -85.97854 | 17115 ft | 323 kts | 274° |
| 2026-05-04 00:10 | 41.52375 | -86.00862 | 16682 ft | 321 kts | 274° |
| 2026-05-04 00:10 | 41.52428 | -86.03830 | 16255 ft | 319 kts | 274° |
| 2026-05-04 00:11 | 41.52481 | -86.06775 | 15821 ft | 317 kts | 274° |
| 2026-05-04 00:11 | 41.52515 | -86.09704 | 15400 ft | 315 kts | 273° |
| 2026-05-04 00:11 | 41.52512 | -86.12626 | 14979 ft | 314 kts | 272° |
| 2026-05-04 00:11 | 41.52493 | -86.15532 | 14562 ft | 312 kts | 272° |
| 2026-05-04 00:12 | 41.52469 | -86.18422 | 14142 ft | 311 kts | 272° |
| 2026-05-04 00:12 | 41.52446 | -86.21303 | 13728 ft | 310 kts | 272° |
| 2026-05-04 00:12 | 41.52426 | -86.24167 | 13281 ft | 308 kts | 272° |
| 2026-05-04 00:12 | 41.52410 | -86.27015 | 12863 ft | 305 kts | 272° |
| 2026-05-04 00:13 | 41.52395 | -86.29835 | 12456 ft | 303 kts | 272° |
| 2026-05-04 00:13 | 41.52377 | -86.32634 | 12051 ft | 300 kts | 271° |
| 2026-05-04 00:13 | 41.52359 | -86.35412 | 11650 ft | 298 kts | 271° |
| 2026-05-04 00:13 | 41.52342 | -86.38132 | 11258 ft | 296 kts | 271° |
| 2026-05-04 00:14 | 41.52325 | -86.40863 | 10920 ft | 292 kts | 271° |
| 2026-05-04 00:14 | 41.52306 | -86.43543 | 10799 ft | 288 kts | 271° |
| 2026-05-04 00:14 | 41.52288 | -86.46214 | 10627 ft | 287 kts | 271° |
| 2026-05-04 00:14 | 41.52272 | -86.48871 | 10457 ft | 286 kts | 271° |
| 2026-05-04 00:15 | 41.52255 | -86.51503 | 10282 ft | 279 kts | 270° |
| 2026-05-04 00:15 | 41.52236 | -86.54034 | 10160 ft | 268 kts | 270° |
| 2026-05-04 00:15 | 41.52216 | -86.56486 | 9916 ft | 261 kts | 270° |
| 2026-05-04 00:15 | 41.52196 | -86.58875 | 9874 ft | 259 kts | 271° |
| 2026-05-04 00:16 | 41.52177 | -86.61294 | 9753 ft | 261 kts | 271° |
| 2026-05-04 00:16 | 41.52155 | -86.63719 | 9587 ft | 261 kts | 271° |
| 2026-05-04 00:16 | 41.52137 | -86.66133 | 9420 ft | 260 kts | 270° |
| 2026-05-04 00:16 | 41.52117 | -86.68540 | 9256 ft | 259 kts | 270° |
| 2026-05-04 00:17 | 41.52094 | -86.70939 | 9093 ft | 258 kts | 270° |
| 2026-05-04 00:17 | 41.52071 | -86.73326 | 8932 ft | 257 kts | 270° |
| 2026-05-04 00:17 | 41.52050 | -86.75708 | 8768 ft | 256 kts | 270° |
| 2026-05-04 00:17 | 41.52028 | -86.78082 | 8607 ft | 255 kts | 270° |
| 2026-05-04 00:18 | 41.52008 | -86.80441 | 8448 ft | 254 kts | 269° |
| 2026-05-04 00:18 | 41.51984 | -86.82790 | 8287 ft | 253 kts | 269° |
| 2026-05-04 00:18 | 41.51959 | -86.85135 | 8129 ft | 252 kts | 269° |
| 2026-05-04 00:18 | 41.51937 | -86.87467 | 7970 ft | 250 kts | 269° |
| 2026-05-04 00:19 | 41.51916 | -86.89780 | 7816 ft | 249 kts | 269° |
| 2026-05-04 00:19 | 41.51891 | -86.92087 | 7659 ft | 248 kts | 269° |
| 2026-05-04 00:19 | 41.51865 | -86.94382 | 7502 ft | 247 kts | 269° |
| 2026-05-04 00:19 | 41.51838 | -86.96678 | 7345 ft | 248 kts | 269° |
| 2026-05-04 00:20 | 41.51812 | -86.98979 | 7176 ft | 248 kts | 269° |
| 2026-05-04 00:20 | 41.51788 | -87.01281 | 7021 ft | 247 kts | 268° |
| 2026-05-04 00:20 | 41.51762 | -87.03571 | 6858 ft | 246 kts | 268° |
| 2026-05-04 00:20 | 41.51736 | -87.05849 | 6706 ft | 244 kts | 268° |
| 2026-05-04 00:21 | 41.51710 | -87.08104 | 6549 ft | 242 kts | 268° |
| 2026-05-04 00:21 | 41.51684 | -87.10347 | 6387 ft | 242 kts | 268° |
| 2026-05-04 00:21 | 41.51680 | -87.12592 | 6231 ft | 242 kts | 273° |
| 2026-05-04 00:21 | 41.52169 | -87.14743 | 6067 ft | 247 kts | 295° |
| 2026-05-04 00:22 | 41.53306 | -87.16501 | 5949 ft | 258 kts | 318° |
| 2026-05-04 00:22 | 41.54950 | -87.17589 | 5803 ft | 269 kts | 333° |
| 2026-05-04 00:22 | 41.56706 | -87.18457 | 5682 ft | 270 kts | 333° |
| 2026-05-04 00:22 | 41.58465 | -87.19326 | 5513 ft | 269 kts | 333° |
| 2026-05-04 00:23 | 41.60220 | -87.20195 | 5387 ft | 269 kts | 333° |
| 2026-05-04 00:23 | 41.61971 | -87.21065 | 5249 ft | 268 kts | 332° |
| 2026-05-04 00:23 | 41.63720 | -87.21939 | 5118 ft | 268 kts | 332° |
| 2026-05-04 00:23 | 41.64876 | -87.22519 | 5032 ft | 267 kts | 332° |
| 2026-05-04 00:24 | 41.66619 | -87.23392 | 4900 ft | 267 kts | 332° |
| 2026-05-04 00:24 | 41.68359 | -87.24265 | 4765 ft | 267 kts | 332° |
| 2026-05-04 00:24 | 41.70659 | -87.25421 | 4601 ft | 266 kts | 332° |
| 2026-05-04 00:24 | 41.72394 | -87.26294 | 4465 ft | 266 kts | 332° |
| 2026-05-04 00:25 | 41.74127 | -87.27164 | 4340 ft | 266 kts | 332° |
| 2026-05-04 00:25 | 41.75298 | -87.27750 | 4251 ft | 265 kts | 332° |
| 2026-05-04 00:25 | 41.76999 | -87.28688 | 4117 ft | 263 kts | 329° |
| 2026-05-04 00:25 | 41.78638 | -87.29694 | 3989 ft | 263 kts | 327° |
| 2026-05-04 00:26 | 41.80240 | -87.30713 | 3861 ft | 262 kts | 327° |
| 2026-05-04 00:26 | 41.81923 | -87.31787 | 3726 ft | 262 kts | 327° |
| 2026-05-04 00:26 | 41.83416 | -87.33095 | 3594 ft | 251 kts | 309° |
| 2026-05-04 00:26 | 41.84452 | -87.34922 | 3476 ft | 242 kts | 291° |
| 2026-05-04 00:27 | 41.84974 | -87.37030 | 3349 ft | 236 kts | 274° |
| 2026-05-04 00:27 | 41.85033 | -87.39212 | 3230 ft | 235 kts | 266° |
| 2026-05-04 00:27 | 41.85025 | -87.41401 | 3118 ft | 235 kts | 267° |
| 2026-05-04 00:27 | 41.85021 | -87.43555 | 3015 ft | 234 kts | 267° |
| 2026-05-04 00:28 | 41.85021 | -87.45753 | 2975 ft | 235 kts | 267° |
| 2026-05-04 00:28 | 41.85021 | -87.47926 | 2972 ft | 228 kts | 267° |
| 2026-05-04 00:28 | 41.85022 | -87.49974 | 2970 ft | 213 kts | 266° |
| 2026-05-04 00:28 | 41.85022 | -87.51929 | 2982 ft | 208 kts | 267° |
| 2026-05-04 00:29 | 41.85022 | -87.53826 | 2982 ft | 197 kts | 266° |
| 2026-05-04 00:29 | 41.85014 | -87.55617 | 2968 ft | 193 kts | 265° |
| 2026-05-04 00:29 | 41.84950 | -87.57429 | 2974 ft | 191 kts | 264° |
| 2026-05-04 00:29 | 41.84868 | -87.59188 | 2975 ft | 191 kts | 264° |
| 2026-05-04 00:30 | 41.84786 | -87.60897 | 2977 ft | 170 kts | 263° |
| 2026-05-04 00:30 | 41.84711 | -87.62393 | 2759 ft | 154 kts | 262° |
| 2026-05-04 00:30 | 41.84638 | -87.63778 | 2567 ft | 145 kts | 261° |
| 2026-05-04 00:30 | 41.84474 | -87.65071 | 2373 ft | 138 kts | 247° |
| 2026-05-04 00:31 | 41.84083 | -87.66262 | 2171 ft | 138 kts | 245° |
| 2026-05-04 00:31 | 41.83720 | -87.67383 | 1985 ft | 126 kts | 245° |
| 2026-05-04 00:31 | 41.83373 | -87.68436 | 1818 ft | 122 kts | 242° |
| 2026-05-04 00:31 | 41.82919 | -87.69439 | 1632 ft | 130 kts | 234° |
| 2026-05-04 00:32 | 41.82317 | -87.70367 | 1476 ft | 138 kts | 224° |
| 2026-05-04 00:32 | 41.81604 | -87.71265 | 1296 ft | 143 kts | 225° |
| 2026-05-04 00:32 | 41.80877 | -87.72182 | 1082 ft | 141 kts | 224° |
| 2026-05-04 00:32 | 41.80178 | -87.73066 | 917 ft | 137 kts | 225° |
| 2026-05-04 00:33 | 41.79512 | -87.73908 | 747 ft | 133 kts | 223° |
| 2026-05-04 00:33 | 41.78340 | -87.75397 | 637 ft | 59 kts | 223° |
| 2026-05-04 00:33 | 41.78155 | -87.75537 | 630 ft | 20 kts | 193° |
| 2026-05-04 00:34 | 41.78100 | -87.75531 | 634 ft | 5 kts | 116° |
| 2026-05-04 00:34 | 41.78118 | -87.75477 | 629 ft | 12 kts | 51° |
| 2026-05-04 00:34 | 41.78188 | -87.75389 | 629 ft | 13 kts | 44° |
| 2026-05-04 00:34 | 41.78251 | -87.75307 | 633 ft | 12 kts | 44° |
| 2026-05-04 00:35 | 41.78307 | -87.75235 | 632 ft | 10 kts | 43° |
| 2026-05-04 00:35 | 41.78354 | -87.75176 | 635 ft | 9 kts | 43° |
| 2026-05-04 00:35 | 41.78400 | -87.75119 | 630 ft | 9 kts | 43° |
| 2026-05-04 00:35 | 41.78457 | -87.75047 | 629 ft | 13 kts | 43° |
| 2026-05-04 00:36 | 41.78518 | -87.74971 | 629 ft | 11 kts | 43° |
| 2026-05-04 00:36 | 41.78573 | -87.74902 | 629 ft | 10 kts | 43° |
| 2026-05-04 00:36 | 41.78624 | -87.74838 | 631 ft | 9 kts | 47° |
| 2026-05-04 00:36 | 41.78672 | -87.74789 | 630 ft | 8 kts | 17° |
| 2026-05-04 00:37 | 41.78719 | -87.74760 | 629 ft | 7 kts | 46° |
| 2026-05-04 00:37 | 41.78751 | -87.74717 | 633 ft | 6 kts | 45° |
| 2026-05-04 00:37 | 41.78798 | -87.74657 | 631 ft | 13 kts | 43° |
| 2026-05-04 00:37 | 41.78862 | -87.74576 | 629 ft | 12 kts | 43° |
| 2026-05-04 00:38 | 41.78921 | -87.74501 | 629 ft | 11 kts | 43° |
| 2026-05-04 00:38 | 41.78976 | -87.74432 | 632 ft | 10 kts | 43° |
| 2026-05-04 00:38 | 41.79012 | -87.74387 | 631 ft | 0 kts | 52° |
| 2026-05-04 00:38 | 41.79009 | -87.74377 | 634 ft | 3 kts | 111° |
| 2026-05-04 00:39 | 41.78990 | -87.74350 | 634 ft | 4 kts | 134° |
| 2026-05-04 00:39 | 41.78971 | -87.74324 | 631 ft | 4 kts | 134° |
| 2026-05-04 00:39 | 41.78951 | -87.74286 | 629 ft | 5 kts | 109° |
| 2026-05-04 00:39 | 41.78947 | -87.74269 | 633 ft | 2 kts | 106° |
| 2026-05-04 00:40 | 41.78944 | -87.74254 | 634 ft | 2 kts | 107° |
| 2026-05-04 00:40 | 41.78940 | -87.74237 | 632 ft | 2 kts | 108° |
| 2026-05-04 00:40 | 41.78939 | -87.74233 | 631 ft | 0 kts | 108° |